sensor_id;sensor_type;location;lat;lon;timestamp;pressure;altitude;pressure_sealevel;temperature;humidity
57668;BME280;43499;52.366;12.912;2022-08-25T00:00:34;101747.47;;;20.41;86.73
57668;BME280;43499;52.366;12.912;2022-08-25T00:01:41;101743.13;;;20.43;86.62
57668;BME280;43499;52.366;12.912;2022-08-25T00:02:55;101740.19;;;20.38;86.56
57668;BME280;43499;52.366;12.912;2022-08-25T00:04:01;101740.31;;;20.40;86.77
57668;BME280;43499;52.366;12.912;2022-08-25T00:05:06;101741.13;;;20.39;86.67
57668;BME280;43499;52.366;12.912;2022-08-25T00:06:11;101742.44;;;20.30;86.54
57668;BME280;43499;52.366;12.912;2022-08-25T00:07:23;101741.16;;;20.24;87.20
57668;BME280;43499;52.366;12.912;2022-08-25T00:08:26;101735.56;;;20.04;88.40
57668;BME280;43499;52.366;12.912;2022-08-25T00:09:32;101735.81;;;20.09;88.50
57668;BME280;43499;52.366;12.912;2022-08-25T00:11:29;101734.06;;;20.24;88.22
57668;BME280;43499;52.366;12.912;2022-08-25T00:12:45;101726.44;;;20.15;88.42
57668;BME280;43499;52.366;12.912;2022-08-25T00:14:35;101735.13;;;20.11;88.61
57668;BME280;43499;52.366;12.912;2022-08-25T00:15:46;101736.09;;;20.13;88.73
57668;BME280;43499;52.366;12.912;2022-08-25T00:18:15;101738.13;;;20.17;88.49
57668;BME280;43499;52.366;12.912;2022-08-25T00:19:51;101729.63;;;20.25;87.89
57668;BME280;43499;52.366;12.912;2022-08-25T00:20:57;101733.44;;;20.28;88.04
57668;BME280;43499;52.366;12.912;2022-08-25T00:22:16;101727.91;;;20.25;87.83
57668;BME280;43499;52.366;12.912;2022-08-25T00:23:36;101726.63;;;20.18;88.03
57668;BME280;43499;52.366;12.912;2022-08-25T00:24:46;101720.38;;;20.18;87.89
57668;BME280;43499;52.366;12.912;2022-08-25T00:26:38;101729.84;;;20.13;88.03
57668;BME280;43499;52.366;12.912;2022-08-25T00:28:33;101722.13;;;20.02;88.69
57668;BME280;43499;52.366;12.912;2022-08-25T00:29:49;101715.88;;;20.02;89.13
57668;BME280;43499;52.366;12.912;2022-08-25T00:30:59;101711.28;;;19.99;89.20
57668;BME280;43499;52.366;12.912;2022-08-25T00:32:35;101712.28;;;20.01;88.91
57668;BME280;43499;52.366;12.912;2022-08-25T00:33:46;101721.66;;;20.10;88.60
57668;BME280;43499;52.366;12.912;2022-08-25T00:35:23;101718.84;;;20.07;88.39
57668;BME280;43499;52.366;12.912;2022-08-25T00:36:50;101720.00;;;20.12;88.23
57668;BME280;43499;52.366;12.912;2022-08-25T00:38:19;101723.44;;;20.09;88.07
57668;BME280;43499;52.366;12.912;2022-08-25T00:39:25;101720.94;;;20.12;87.94
57668;BME280;43499;52.366;12.912;2022-08-25T00:41:03;101717.34;;;20.12;87.70
57668;BME280;43499;52.366;12.912;2022-08-25T00:42:47;101716.25;;;20.08;87.81
57668;BME280;43499;52.366;12.912;2022-08-25T00:44:15;101716.31;;;20.10;87.68
57668;BME280;43499;52.366;12.912;2022-08-25T00:45:48;101712.63;;;20.08;87.38
57668;BME280;43499;52.366;12.912;2022-08-25T00:47:43;101715.41;;;20.09;87.33
57668;BME280;43499;52.366;12.912;2022-08-25T00:48:51;101715.31;;;20.08;87.17
57668;BME280;43499;52.366;12.912;2022-08-25T00:50:08;101714.31;;;20.06;87.15
57668;BME280;43499;52.366;12.912;2022-08-25T00:51:39;101710.72;;;20.05;86.92
57668;BME280;43499;52.366;12.912;2022-08-25T00:52:52;101719.81;;;20.09;86.53
57668;BME280;43499;52.366;12.912;2022-08-25T00:54:24;101716.25;;;20.08;86.98
57668;BME280;43499;52.366;12.912;2022-08-25T00:55:52;101713.38;;;20.05;86.93
57668;BME280;43499;52.366;12.912;2022-08-25T00:57:20;101713.31;;;20.03;86.96
57668;BME280;43499;52.366;12.912;2022-08-25T00:58:51;101717.63;;;20.01;87.14
57668;BME280;43499;52.366;12.912;2022-08-25T01:00:27;101718.28;;;19.97;87.08
57668;BME280;43499;52.366;12.912;2022-08-25T01:01:48;101711.00;;;19.95;87.27
57668;BME280;43499;52.366;12.912;2022-08-25T01:03:22;101722.31;;;19.91;87.73
57668;BME280;43499;52.366;12.912;2022-08-25T01:04:44;101720.59;;;19.91;87.68
57668;BME280;43499;52.366;12.912;2022-08-25T01:06:28;101719.50;;;19.87;87.71
57668;BME280;43499;52.366;12.912;2022-08-25T01:07:48;101725.00;;;19.91;87.92
57668;BME280;43499;52.366;12.912;2022-08-25T01:09:21;101727.50;;;19.87;87.92
57668;BME280;43499;52.366;12.912;2022-08-25T01:10:31;101722.84;;;19.85;87.91
57668;BME280;43499;52.366;12.912;2022-08-25T01:12:06;101726.44;;;19.85;87.78
57668;BME280;43499;52.366;12.912;2022-08-25T01:13:35;101729.03;;;19.84;87.96
57668;BME280;43499;52.366;12.912;2022-08-25T01:15:01;101726.25;;;19.82;87.98
57668;BME280;43499;52.366;12.912;2022-08-25T01:16:06;101733.66;;;19.86;87.99
57668;BME280;43499;52.366;12.912;2022-08-25T01:17:22;101720.03;;;19.82;88.09
57668;BME280;43499;52.366;12.912;2022-08-25T01:20:36;101729.03;;;19.84;87.99
57668;BME280;43499;52.366;12.912;2022-08-25T01:21:52;101726.25;;;19.82;88.24
57668;BME280;43499;52.366;12.912;2022-08-25T01:23:29;101732.63;;;19.84;88.12
57668;BME280;43499;52.366;12.912;2022-08-25T01:24:45;101735.19;;;19.83;88.10
57668;BME280;43499;52.366;12.912;2022-08-25T01:26:16;101732.53;;;19.83;88.38
57668;BME280;43499;52.366;12.912;2022-08-25T01:27:18;101722.69;;;19.82;88.58
57668;BME280;43499;52.366;12.912;2022-08-25T01:28:23;101728.84;;;19.81;88.52
57668;BME280;43499;52.366;12.912;2022-08-25T01:30:06;101735.09;;;19.81;88.48
57668;BME280;43499;52.366;12.912;2022-08-25T01:31:17;101732.25;;;19.78;88.66
57668;BME280;43499;52.366;12.912;2022-08-25T01:32:54;101726.81;;;19.77;88.79
57668;BME280;43499;52.366;12.912;2022-08-25T01:34:40;101722.31;;;19.76;88.80
57668;BME280;43499;52.366;12.912;2022-08-25T01:36:17;101731.31;;;19.78;88.98
57668;BME280;43499;52.366;12.912;2022-08-25T01:37:43;101728.56;;;19.76;88.89
57668;BME280;43499;52.366;12.912;2022-08-25T01:38:55;101723.06;;;19.73;89.09
57668;BME280;43499;52.366;12.912;2022-08-25T01:42:33;101731.88;;;19.72;89.08
57668;BME280;43499;52.366;12.912;2022-08-25T01:43:59;101721.84;;;19.68;89.05
57668;BME280;43499;52.366;12.912;2022-08-25T01:45:06;101734.34;;;19.69;89.30
57668;BME280;43499;52.366;12.912;2022-08-25T01:46:20;101726.47;;;19.70;89.30
57668;BME280;43499;52.366;12.912;2022-08-25T01:47:55;101725.44;;;19.68;89.50
57668;BME280;43499;52.366;12.912;2022-08-25T01:48:57;101728.94;;;19.67;89.56
57668;BME280;43499;52.366;12.912;2022-08-25T01:49:59;101720.03;;;19.67;89.66
57668;BME280;43499;52.366;12.912;2022-08-25T01:51:29;101724.16;;;19.62;89.77
57668;BME280;43499;52.366;12.912;2022-08-25T01:53:13;101723.41;;;19.64;90.16
57668;BME280;43499;52.366;12.912;2022-08-25T01:54:24;101727.84;;;19.64;90.13
57668;BME280;43499;52.366;12.912;2022-08-25T01:56:10;101722.38;;;19.62;90.08
57668;BME280;43499;52.366;12.912;2022-08-25T01:57:20;101721.13;;;19.55;90.47
57668;BME280;43499;52.366;12.912;2022-08-25T01:58:35;101714.94;;;19.56;90.54
57668;BME280;43499;52.366;12.912;2022-08-25T01:59:39;101716.63;;;19.54;90.74
57668;BME280;43499;52.366;12.912;2022-08-25T02:00:59;101712.13;;;19.53;90.69
57668;BME280;43499;52.366;12.912;2022-08-25T02:03:51;101709.72;;;19.43;91.10
57668;BME280;43499;52.366;12.912;2022-08-25T02:05:39;101706.03;;;19.41;91.17
57668;BME280;43499;52.366;12.912;2022-08-25T02:06:46;101702.69;;;19.30;91.67
57668;BME280;43499;52.366;12.912;2022-08-25T02:07:55;101715.75;;;19.40;91.92
57668;BME280;43499;52.366;12.912;2022-08-25T02:09:17;101710.41;;;19.25;92.90
57668;BME280;43499;52.366;12.912;2022-08-25T02:10:44;101701.94;;;19.33;92.78
57668;BME280;43499;52.366;12.912;2022-08-25T02:11:49;101699.69;;;19.39;92.29
57668;BME280;43499;52.366;12.912;2022-08-25T02:13:12;101699.59;;;19.37;92.11
57668;BME280;43499;52.366;12.912;2022-08-25T02:14:21;101705.84;;;19.38;92.70
57668;BME280;43499;52.366;12.912;2022-08-25T02:15:22;101699.28;;;19.33;92.54
57668;BME280;43499;52.366;12.912;2022-08-25T02:16:30;101698.31;;;19.31;92.61
57668;BME280;43499;52.366;12.912;2022-08-25T02:17:40;101703.63;;;19.31;92.49
57668;BME280;43499;52.366;12.912;2022-08-25T02:18:49;101699.41;;;19.34;92.52
57668;BME280;43499;52.366;12.912;2022-08-25T02:20:10;101697.38;;;19.30;92.12
57668;BME280;43499;52.366;12.912;2022-08-25T02:21:14;101685.78;;;19.30;92.55
57668;BME280;43499;52.366;12.912;2022-08-25T02:22:23;101690.31;;;19.31;92.71
57668;BME280;43499;52.366;12.912;2022-08-25T02:23:54;101689.16;;;19.27;92.60
57668;BME280;43499;52.366;12.912;2022-08-25T02:25:07;101696.34;;;19.28;92.44
57668;BME280;43499;52.366;12.912;2022-08-25T02:26:44;101691.94;;;19.29;92.42
57668;BME280;43499;52.366;12.912;2022-08-25T02:27:51;101688.34;;;19.28;92.36
57668;BME280;43499;52.366;12.912;2022-08-25T02:29:09;101693.69;;;19.28;92.20
57668;BME280;43499;52.366;12.912;2022-08-25T02:30:22;101696.25;;;19.26;92.41
57668;BME280;43499;52.366;12.912;2022-08-25T02:31:24;101691.56;;;19.22;92.29
57668;BME280;43499;52.366;12.912;2022-08-25T02:32:41;101689.81;;;19.23;92.44
57668;BME280;43499;52.366;12.912;2022-08-25T02:34:12;101699.56;;;19.22;92.60
57668;BME280;43499;52.366;12.912;2022-08-25T02:35:19;101694.41;;;19.25;92.39
57668;BME280;43499;52.366;12.912;2022-08-25T02:36:44;101696.97;;;19.09;92.48
57668;BME280;43499;52.366;12.912;2022-08-25T02:37:58;101701.09;;;19.04;93.31
57668;BME280;43499;52.366;12.912;2022-08-25T02:39:12;101697.69;;;19.06;93.66
57668;BME280;43499;52.366;12.912;2022-08-25T02:40:13;101691.75;;;19.10;93.65
57668;BME280;43499;52.366;12.912;2022-08-25T02:43:20;101690.09;;;18.84;94.80
57668;BME280;43499;52.366;12.912;2022-08-25T02:44:42;101693.25;;;18.92;94.75
57668;BME280;43499;52.366;12.912;2022-08-25T02:45:47;101693.25;;;18.92;94.77
57668;BME280;43499;52.366;12.912;2022-08-25T02:46:59;101689.63;;;18.91;95.01
57668;BME280;43499;52.366;12.912;2022-08-25T02:48:02;101695.41;;;18.98;94.92
57668;BME280;43499;52.366;12.912;2022-08-25T02:49:06;101700.06;;;19.02;94.69
57668;BME280;43499;52.366;12.912;2022-08-25T02:50:50;101694.84;;;19.03;94.69
57668;BME280;43499;52.366;12.912;2022-08-25T02:52:10;101689.53;;;19.03;94.05
57668;BME280;43499;52.366;12.912;2022-08-25T02:53:35;101689.53;;;18.90;94.63
57668;BME280;43499;52.366;12.912;2022-08-25T02:55:11;101684.09;;;18.88;94.82
57668;BME280;43499;52.366;12.912;2022-08-25T02:56:27;101687.59;;;18.59;97.42
57668;BME280;43499;52.366;12.912;2022-08-25T02:57:45;101691.56;;;18.65;97.17
57668;BME280;43499;52.366;12.912;2022-08-25T02:58:51;101682.34;;;18.74;96.62
57668;BME280;43499;52.366;12.912;2022-08-25T03:00:22;101685.81;;;18.73;96.61
57668;BME280;43499;52.366;12.912;2022-08-25T03:02:12;101693.66;;;18.85;95.75
57668;BME280;43499;52.366;12.912;2022-08-25T03:03:16;101688.44;;;18.86;95.59
57668;BME280;43499;52.366;12.912;2022-08-25T03:04:28;101692.84;;;18.86;95.42
57668;BME280;43499;52.366;12.912;2022-08-25T03:05:56;101681.88;;;18.81;95.51
57668;BME280;43499;52.366;12.912;2022-08-25T03:06:58;101674.81;;;18.81;95.38
57668;BME280;43499;52.366;12.912;2022-08-25T03:09:46;101680.34;;;18.85;94.77
57668;BME280;43499;52.366;12.912;2022-08-25T03:11:35;101685.88;;;18.88;94.47
57668;BME280;43499;52.366;12.912;2022-08-25T03:12:48;101675.22;;;18.88;94.23
57668;BME280;43499;52.366;12.912;2022-08-25T03:14:22;101677.25;;;18.92;93.73
57668;BME280;43499;52.366;12.912;2022-08-25T03:15:27;101672.81;;;18.92;93.60
57668;BME280;43499;52.366;12.912;2022-08-25T03:17:06;101679.22;;;18.94;93.43
57668;BME280;43499;52.366;12.912;2022-08-25T03:18:17;101669.25;;;18.92;93.29
57668;BME280;43499;52.366;12.912;2022-08-25T03:19:26;101674.59;;;18.92;93.19
57668;BME280;43499;52.366;12.912;2022-08-25T03:21:56;101667.41;;;18.91;93.10
57668;BME280;43499;52.366;12.912;2022-08-25T03:23:10;101662.91;;;18.90;92.89
57668;BME280;43499;52.366;12.912;2022-08-25T03:24:24;101675.50;;;18.92;92.72
57668;BME280;43499;52.366;12.912;2022-08-25T03:25:43;101674.59;;;18.92;92.55
57668;BME280;43499;52.366;12.912;2022-08-25T03:27:06;101663.00;;;18.91;92.40
57668;BME280;43499;52.366;12.912;2022-08-25T03:28:22;101665.56;;;18.90;92.57
57668;BME280;43499;52.366;12.912;2022-08-25T03:29:44;101665.47;;;18.88;92.73
57668;BME280;43499;52.366;12.912;2022-08-25T03:31:01;101664.84;;;18.92;92.75
57668;BME280;43499;52.366;12.912;2022-08-25T03:32:05;101652.97;;;18.87;92.62
57668;BME280;43499;52.366;12.912;2022-08-25T03:33:07;101660.13;;;18.88;92.58
57668;BME280;43499;52.366;12.912;2022-08-25T03:34:29;101670.06;;;18.91;92.60
57668;BME280;43499;52.366;12.912;2022-08-25T03:35:31;101654.72;;;18.87;92.37
57668;BME280;43499;52.366;12.912;2022-08-25T03:37:07;101659.31;;;18.89;92.52
57668;BME280;43499;52.366;12.912;2022-08-25T03:38:31;101663.00;;;18.91;92.25
57668;BME280;43499;52.366;12.912;2022-08-25T03:39:33;101655.81;;;18.90;92.34
57668;BME280;43499;52.366;12.912;2022-08-25T03:40:46;101649.47;;;18.88;92.60
57668;BME280;43499;52.366;12.912;2022-08-25T03:42:01;101658.59;;;18.92;92.86
57668;BME280;43499;52.366;12.912;2022-08-25T03:43:13;101655.94;;;18.92;92.57
57668;BME280;43499;52.366;12.912;2022-08-25T03:44:27;101664.03;;;18.93;92.53
57668;BME280;43499;52.366;12.912;2022-08-25T03:46:00;101652.97;;;18.87;92.52
57668;BME280;43499;52.366;12.912;2022-08-25T03:47:22;101656.56;;;18.88;92.74
57668;BME280;43499;52.366;12.912;2022-08-25T03:48:38;101666.19;;;18.86;92.80
57668;BME280;43499;52.366;12.912;2022-08-25T03:49:54;101654.09;;;18.91;92.68
57668;BME280;43499;52.366;12.912;2022-08-25T03:51:29;101660.25;;;18.90;92.47
57668;BME280;43499;52.366;12.912;2022-08-25T03:52:58;101655.63;;;18.87;92.53
57668;BME280;43499;52.366;12.912;2022-08-25T03:54:23;101650.28;;;18.87;92.61
57668;BME280;43499;52.366;12.912;2022-08-25T03:55:50;101646.53;;;18.84;92.64
57668;BME280;43499;52.366;12.912;2022-08-25T03:57:27;101654.81;;;18.88;92.67
57668;BME280;43499;52.366;12.912;2022-08-25T03:58:57;101648.47;;;18.86;92.56
57668;BME280;43499;52.366;12.912;2022-08-25T04:00:19;101656.16;;;18.81;92.70
57668;BME280;43499;52.366;12.912;2022-08-25T04:01:27;101660.78;;;18.84;92.79
57668;BME280;43499;52.366;12.912;2022-08-25T04:04:47;101653.41;;;18.80;92.58
57668;BME280;43499;52.366;12.912;2022-08-25T04:06:07;101655.16;;;18.79;92.48
57668;BME280;43499;52.366;12.912;2022-08-25T04:07:29;101661.31;;;18.78;92.60
57668;BME280;43499;52.366;12.912;2022-08-25T04:08:46;101657.72;;;18.78;92.75
57668;BME280;43499;52.366;12.912;2022-08-25T04:10:39;101661.19;;;18.77;92.75
57668;BME280;43499;52.366;12.912;2022-08-25T04:11:55;101655.72;;;18.74;92.92
57668;BME280;43499;52.366;12.912;2022-08-25T04:13:02;101656.31;;;18.70;92.83
57668;BME280;43499;52.366;12.912;2022-08-25T04:14:07;101662.25;;;18.65;92.99
57668;BME280;43499;52.366;12.912;2022-08-25T04:15:17;101663.41;;;18.69;93.03
57668;BME280;43499;52.366;12.912;2022-08-25T04:16:24;101655.41;;;18.69;92.80
57668;BME280;43499;52.366;12.912;2022-08-25T04:17:46;101662.47;;;18.69;92.98
57668;BME280;43499;52.366;12.912;2022-08-25T04:19:02;101660.75;;;18.69;92.93
57668;BME280;43499;52.366;12.912;2022-08-25T04:20:33;101657.34;;;18.72;93.14
57668;BME280;43499;52.366;12.912;2022-08-25T04:21:48;101653.66;;;18.70;92.94
57668;BME280;43499;52.366;12.912;2022-08-25T04:22:49;101652.78;;;18.56;93.15
57668;BME280;43499;52.366;12.912;2022-08-25T04:24:08;101659.22;;;18.59;93.46
57668;BME280;43499;52.366;12.912;2022-08-25T04:25:25;101656.47;;;18.58;93.78
57668;BME280;43499;52.366;12.912;2022-08-25T04:26:41;101654.00;;;18.61;93.95
57668;BME280;43499;52.366;12.912;2022-08-25T04:27:45;101659.59;;;18.65;93.80
57668;BME280;43499;52.366;12.912;2022-08-25T04:28:53;101652.63;;;18.68;93.45
57668;BME280;43499;52.366;12.912;2022-08-25T04:30:27;101659.00;;;18.70;92.95
57668;BME280;43499;52.366;12.912;2022-08-25T04:33:28;101669.03;;;18.74;92.82
57668;BME280;43499;52.366;12.912;2022-08-25T04:34:52;101666.66;;;18.78;92.88
57668;BME280;43499;52.366;12.912;2022-08-25T04:35:53;101665.16;;;18.84;92.36
57668;BME280;43499;52.366;12.912;2022-08-25T04:37:06;101665.81;;;18.79;92.78
57668;BME280;43499;52.366;12.912;2022-08-25T04:38:32;101667.66;;;18.80;92.80
57668;BME280;43499;52.366;12.912;2022-08-25T04:41:36;101665.66;;;18.91;92.77
57668;BME280;43499;52.366;12.912;2022-08-25T04:42:47;101663.72;;;18.89;92.66
57668;BME280;43499;52.366;12.912;2022-08-25T04:44:04;101667.63;;;18.94;92.34
57668;BME280;43499;52.366;12.912;2022-08-25T04:45:20;101663.31;;;18.96;92.40
57668;BME280;43499;52.366;12.912;2022-08-25T04:46:34;101662.09;;;18.91;91.56
57668;BME280;43499;52.366;12.912;2022-08-25T04:47:57;101677.38;;;18.80;92.61
57668;BME280;43499;52.366;12.912;2022-08-25T04:49:32;101670.22;;;18.79;92.98
57668;BME280;43499;52.366;12.912;2022-08-25T04:50:40;101670.75;;;18.73;93.34
57668;BME280;43499;52.366;12.912;2022-08-25T04:51:50;101667.53;;;18.79;93.42
57668;BME280;43499;52.366;12.912;2022-08-25T04:54:52;101670.63;;;18.85;93.41
57668;BME280;43499;52.366;12.912;2022-08-25T04:57:52;101674.28;;;18.87;93.15
57668;BME280;43499;52.366;12.912;2022-08-25T05:01:07;101681.97;;;18.96;92.50
57668;BME280;43499;52.366;12.912;2022-08-25T05:02:35;101682.34;;;19.02;91.41
57668;BME280;43499;52.366;12.912;2022-08-25T05:04:31;101679.56;;;19.01;91.98
57668;BME280;43499;52.366;12.912;2022-08-25T05:05:38;101677.03;;;19.02;91.11
57668;BME280;43499;52.366;12.912;2022-08-25T05:07:18;101684.38;;;18.93;92.45
57668;BME280;43499;52.366;12.912;2022-08-25T05:08:30;101682.25;;;18.87;92.64
57668;BME280;43499;52.366;12.912;2022-08-25T05:09:35;101678.38;;;18.95;92.56
57668;BME280;43499;52.366;12.912;2022-08-25T05:10:41;101682.44;;;19.04;91.88
57668;BME280;43499;52.366;12.912;2022-08-25T05:12:37;101677.94;;;19.03;90.81
57668;BME280;43499;52.366;12.912;2022-08-25T05:14:14;101673.72;;;19.06;90.38
57668;BME280;43499;52.366;12.912;2022-08-25T05:15:18;101679.78;;;19.19;90.96
57668;BME280;43499;52.366;12.912;2022-08-25T05:17:03;101679.09;;;19.36;89.91
57668;BME280;43499;52.366;12.912;2022-08-25T05:18:17;101673.50;;;19.32;89.46
57668;BME280;43499;52.366;12.912;2022-08-25T05:19:36;101680.47;;;19.30;89.74
57668;BME280;43499;52.366;12.912;2022-08-25T05:20:56;101681.94;;;19.39;89.78
57668;BME280;43499;52.366;12.912;2022-08-25T05:21:58;101677.06;;;19.32;89.14
57668;BME280;43499;52.366;12.912;2022-08-25T05:23:38;101674.94;;;19.41;89.21
57668;BME280;43499;52.366;12.912;2022-08-25T05:24:53;101681.75;;;19.51;88.95
57668;BME280;43499;52.366;12.912;2022-08-25T05:26:05;101686.53;;;19.57;88.45
57668;BME280;43499;52.366;12.912;2022-08-25T05:27:13;101676.78;;;19.72;87.84
57668;BME280;43499;52.366;12.912;2022-08-25T05:28:24;101679.38;;;19.86;87.26
57668;BME280;43499;52.366;12.912;2022-08-25T05:30:31;101681.22;;;19.87;86.57
57668;BME280;43499;52.366;12.912;2022-08-25T05:32:03;101687.63;;;19.91;86.42
57668;BME280;43499;52.366;12.912;2022-08-25T05:36:01;101679.72;;;20.07;85.75
57668;BME280;43499;52.366;12.912;2022-08-25T05:37:21;101673.53;;;20.08;85.21
57668;BME280;43499;52.366;12.912;2022-08-25T05:38:46;101681.88;;;20.14;85.32
57668;BME280;43499;52.366;12.912;2022-08-25T05:40:05;101675.16;;;20.21;84.68
57668;BME280;43499;52.366;12.912;2022-08-25T05:41:21;101677.44;;;20.30;84.55
57668;BME280;43499;52.366;12.912;2022-08-25T05:43:06;101671.78;;;20.40;84.20
57668;BME280;43499;52.366;12.912;2022-08-25T05:44:43;101681.69;;;20.43;83.79
57668;BME280;43499;52.366;12.912;2022-08-25T05:48:00;101680.03;;;20.45;83.24
57668;BME280;43499;52.366;12.912;2022-08-25T05:49:14;101676.53;;;20.29;83.36
57668;BME280;43499;52.366;12.912;2022-08-25T05:50:28;101681.44;;;20.38;83.72
57668;BME280;43499;52.366;12.912;2022-08-25T05:55:09;101673.19;;;20.33;84.01
57668;BME280;43499;52.366;12.912;2022-08-25T05:56:32;101672.47;;;20.36;83.74
57668;BME280;43499;52.366;12.912;2022-08-25T06:00:09;101664.97;;;20.45;83.71
57668;BME280;43499;52.366;12.912;2022-08-25T06:02:07;101677.56;;;20.48;83.10
57668;BME280;43499;52.366;12.912;2022-08-25T06:03:39;101671.88;;;20.42;83.37
57668;BME280;43499;52.366;12.912;2022-08-25T06:05:17;101675.47;;;20.42;83.88
57668;BME280;43499;52.366;12.912;2022-08-25T06:07:40;101675.63;;;20.45;84.01
57668;BME280;43499;52.366;12.912;2022-08-25T06:09:07;101681.94;;;20.31;83.70
57668;BME280;43499;52.366;12.912;2022-08-25T06:10:50;101682.00;;;20.32;84.64
57668;BME280;43499;52.366;12.912;2022-08-25T06:12:57;101682.06;;;20.17;84.88
57668;BME280;43499;52.366;12.912;2022-08-25T06:14:01;101677.38;;;20.13;85.39
57668;BME280;43499;52.366;12.912;2022-08-25T06:15:06;101682.19;;;20.04;85.08
57668;BME280;43499;52.366;12.912;2022-08-25T06:16:15;101688.84;;;19.96;86.17
57668;BME280;43499;52.366;12.912;2022-08-25T06:17:57;101676.41;;;19.96;86.68
57668;BME280;43499;52.366;12.912;2022-08-25T06:19:13;101683.88;;;19.87;87.00
57668;BME280;43499;52.366;12.912;2022-08-25T06:21:13;101687.53;;;20.04;86.55
57668;BME280;43499;52.366;12.912;2022-08-25T06:22:29;101689.16;;;20.17;86.56
57668;BME280;43499;52.366;12.912;2022-08-25T06:24:07;101693.91;;;20.38;85.51
57668;BME280;43499;52.366;12.912;2022-08-25T06:32:14;101690.13;;;21.15;81.89
57668;BME280;43499;52.366;12.912;2022-08-25T06:36:08;101688.28;;;21.31;80.09
57668;BME280;43499;52.366;12.912;2022-08-25T06:38:03;101694.13;;;21.58;79.79
57668;BME280;43499;52.366;12.912;2022-08-25T06:39:32;101698.50;;;21.72;79.38
57668;BME280;43499;52.366;12.912;2022-08-25T06:43:46;101692.28;;;21.92;78.14
57668;BME280;43499;52.366;12.912;2022-08-25T06:44:47;101691.66;;;21.97;77.83
57668;BME280;43499;52.366;12.912;2022-08-25T06:46:29;101686.56;;;22.20;77.30
57668;BME280;43499;52.366;12.912;2022-08-25T06:47:38;101692.75;;;22.19;76.59
57668;BME280;43499;52.366;12.912;2022-08-25T06:48:43;101693.13;;;22.45;75.36
57668;BME280;43499;52.366;12.912;2022-08-25T06:49:59;101692.44;;;22.69;75.04
57668;BME280;43499;52.366;12.912;2022-08-25T06:51:22;101691.47;;;23.06;73.60
57668;BME280;43499;52.366;12.912;2022-08-25T06:54:03;101684.53;;;23.71;71.80
57668;BME280;43499;52.366;12.912;2022-08-25T06:55:27;101679.69;;;23.63;70.85
57668;BME280;43499;52.366;12.912;2022-08-25T06:56:32;101692.97;;;23.60;71.03
57668;BME280;43499;52.366;12.912;2022-08-25T06:58:24;101686.25;;;23.69;70.93
57668;BME280;43499;52.366;12.912;2022-08-25T07:00:44;101691.56;;;24.10;69.50
57668;BME280;43499;52.366;12.912;2022-08-25T07:02:11;101678.63;;;24.23;69.87
57668;BME280;43499;52.366;12.912;2022-08-25T07:03:13;101678.50;;;24.42;68.45
57668;BME280;43499;52.366;12.912;2022-08-25T07:04:20;101678.56;;;24.67;67.56
57668;BME280;43499;52.366;12.912;2022-08-25T07:05:32;101672.81;;;24.34;67.31
57668;BME280;43499;52.366;12.912;2022-08-25T07:07:00;101681.16;;;24.65;67.31
57668;BME280;43499;52.366;12.912;2022-08-25T07:08:13;101679.88;;;25.01;66.51
57668;BME280;43499;52.366;12.912;2022-08-25T07:09:18;101678.94;;;24.76;66.27
57668;BME280;43499;52.366;12.912;2022-08-25T07:10:35;101679.63;;;24.94;66.04
57668;BME280;43499;52.366;12.912;2022-08-25T07:11:38;101674.78;;;25.34;64.73
57668;BME280;43499;52.366;12.912;2022-08-25T07:13:22;101669.50;;;25.37;63.85
57668;BME280;43499;52.366;12.912;2022-08-25T07:14:29;101668.34;;;25.55;64.74
57668;BME280;43499;52.366;12.912;2022-08-25T07:15:39;101673.69;;;25.79;63.87
57668;BME280;43499;52.366;12.912;2022-08-25T07:16:45;101665.47;;;25.76;63.21
57668;BME280;43499;52.366;12.912;2022-08-25T07:17:56;101667.00;;;25.95;62.74
57668;BME280;43499;52.366;12.912;2022-08-25T07:19:17;101663.75;;;26.33;62.39
57668;BME280;43499;52.366;12.912;2022-08-25T07:20:33;101663.88;;;26.38;61.07
57668;BME280;43499;52.366;12.912;2022-08-25T07:21:39;101670.13;;;26.66;60.12
57668;BME280;43499;52.366;12.912;2022-08-25T07:22:50;101663.09;;;26.71;60.28
57668;BME280;43499;52.366;12.912;2022-08-25T07:24:16;101666.44;;;26.33;60.97
57668;BME280;43499;52.366;12.912;2022-08-25T07:25:23;101668.84;;;25.69;61.82
57668;BME280;43499;52.366;12.912;2022-08-25T07:26:40;101665.19;;;24.92;64.33
57668;BME280;43499;52.366;12.912;2022-08-25T07:27:45;101666.34;;;25.23;64.19
57668;BME280;43499;52.366;12.912;2022-08-25T07:28:55;101671.03;;;25.81;62.91
57668;BME280;43499;52.366;12.912;2022-08-25T07:30:31;101665.91;;;26.16;61.49
57668;BME280;43499;52.366;12.912;2022-08-25T07:31:39;101662.72;;;26.28;59.75
57668;BME280;43499;52.366;12.912;2022-08-25T07:32:46;101669.00;;;26.28;60.70
57668;BME280;43499;52.366;12.912;2022-08-25T07:34:16;101664.63;;;26.05;61.29
57668;BME280;43499;52.366;12.912;2022-08-25T07:36:06;101675.28;;;26.01;60.94
57668;BME280;43499;52.366;12.912;2022-08-25T07:37:27;101672.84;;;26.37;60.75
57668;BME280;43499;52.366;12.912;2022-08-25T07:39:08;101667.81;;;27.08;58.77
57668;BME280;43499;52.366;12.912;2022-08-25T07:40:43;101676.06;;;27.47;58.15
57668;BME280;43499;52.366;12.912;2022-08-25T07:42:14;101670.03;;;27.57;57.59
57668;BME280;43499;52.366;12.912;2022-08-25T07:43:36;101672.34;;;27.43;57.06
57668;BME280;43499;52.366;12.912;2022-08-25T07:44:41;101670.38;;;27.37;57.23